createdAt,value
2017-01-10T00:00:34.063Z,0
2017-01-10T00:01:34.303Z,0
2017-01-10T00:02:34.320Z,0
2017-01-10T00:03:34.728Z,0
2017-01-10T00:04:35.026Z,0
2017-01-10T00:05:35.022Z,0
2017-01-10T00:06:34.356Z,0
2017-01-10T00:07:34.990Z,0
2017-01-10T00:08:34.240Z,0
2017-01-10T00:09:35.392Z,0
2017-01-10T00:10:35.224Z,0
2017-01-10T00:11:34.142Z,0
2017-01-10T00:12:35.407Z,0
2017-01-10T00:13:34.748Z,0
2017-01-10T00:14:34.831Z,0
2017-01-10T00:15:34.886Z,0
2017-01-10T00:16:35.155Z,0
2017-01-10T00:17:34.679Z,0
2017-01-10T00:18:35.933Z,0
2017-01-10T00:19:34.920Z,0
2017-01-10T00:20:34.111Z,0
2017-01-10T00:21:34.432Z,0
2017-01-10T00:22:34.842Z,0
2017-01-10T00:23:34.871Z,0
2017-01-10T00:24:35.064Z,0
2017-01-10T00:25:35.055Z,0
2017-01-10T00:26:34.139Z,0
2017-01-10T00:27:35.085Z,0
2017-01-10T00:28:34.364Z,0
2017-01-10T00:29:34.647Z,0
2017-01-10T00:30:35.188Z,0
2017-01-10T00:31:35.939Z,0
2017-01-10T00:32:35.287Z,0
2017-01-10T00:33:35.342Z,0
2017-01-10T00:34:34.901Z,0
2017-01-10T00:35:34.639Z,0
2017-01-10T00:36:34.390Z,0
2017-01-10T00:37:35.449Z,0
2017-01-10T00:38:34.360Z,0
2017-01-10T00:39:34.388Z,0
2017-01-10T00:40:34.975Z,0
2017-01-10T00:41:34.497Z,0
2017-01-10T00:42:35.718Z,0
2017-01-10T00:43:35.448Z,0
2017-01-10T00:44:34.571Z,0
2017-01-10T00:45:35.540Z,0
2017-01-10T00:46:35.271Z,0
2017-01-10T00:47:35.090Z,0
2017-01-10T00:48:35.570Z,0
2017-01-10T00:49:35.603Z,0
2017-01-10T00:50:35.227Z,0
2017-01-10T00:51:35.554Z,0
2017-01-10T00:52:34.647Z,0
2017-01-10T00:53:35.899Z,0
2017-01-10T00:54:36.072Z,0
2017-01-10T00:55:35.468Z,0
2017-01-10T00:56:35.620Z,0
2017-01-10T00:57:34.829Z,0
2017-01-10T00:58:35.388Z,0
2017-01-10T00:59:35.710Z,0
2017-01-10T01:00:35.247Z,0
2017-01-10T01:01:35.906Z,0
2017-01-10T01:02:35.933Z,0
2017-01-10T01:03:34.491Z,0
2017-01-10T01:04:35.396Z,0
2017-01-10T01:05:35.428Z,0
2017-01-10T01:06:35.578Z,0
2017-01-10T01:07:35.621Z,0
2017-01-10T01:08:34.562Z,0
2017-01-10T01:09:34.564Z,0
2017-01-10T01:10:35.555Z,0
2017-01-10T01:11:36.341Z,0
2017-01-10T01:12:35.538Z,0
2017-01-10T01:13:35.750Z,0
2017-01-10T01:14:35.008Z,0
2017-01-10T01:15:36.529Z,0
2017-01-10T01:16:34.546Z,0
2017-01-10T01:17:34.853Z,0
2017-01-10T01:18:36.221Z,0
2017-01-10T01:19:34.636Z,0
2017-01-10T01:20:35.534Z,0
2017-01-10T01:21:35.692Z,0
2017-01-10T01:22:35.324Z,0
2017-01-10T01:23:36.272Z,0
2017-01-10T01:24:36.230Z,0
2017-01-10T01:25:35.920Z,0
2017-01-10T01:26:35.995Z,0
2017-01-10T01:27:35.537Z,0
2017-01-10T01:28:37.100Z,0
2017-01-10T01:29:35.162Z,0
2017-01-10T01:30:36.634Z,0
2017-01-10T01:31:35.739Z,0
2017-01-10T01:32:35.344Z,0
2017-01-10T01:33:36.180Z,0
2017-01-10T01:34:36.398Z,0
2017-01-10T01:35:36.230Z,0
2017-01-10T01:36:36.657Z,0
2017-01-10T01:37:35.605Z,0
2017-01-10T01:38:35.490Z,0
2017-01-10T01:39:35.341Z,0
2017-01-10T01:40:35.619Z,0
2017-01-10T01:41:35.342Z,0
2017-01-10T01:42:36.123Z,0
2017-01-10T01:43:35.519Z,0
2017-01-10T01:44:35.712Z,0
2017-01-10T01:45:35.370Z,0
2017-01-10T01:46:35.375Z,0
2017-01-10T01:47:35.811Z,0
2017-01-10T01:48:35.751Z,0
2017-01-10T01:49:36.092Z,0
2017-01-10T01:50:35.172Z,0
2017-01-10T01:51:36.410Z,0
2017-01-10T01:52:36.130Z,0
2017-01-10T01:53:35.358Z,0
2017-01-10T01:54:36.118Z,0
2017-01-10T01:55:36.928Z,0
2017-01-10T01:56:36.004Z,0
2017-01-10T01:57:37.056Z,0
2017-01-10T01:58:35.800Z,0
2017-01-10T01:59:35.368Z,0
2017-01-10T02:00:36.921Z,0
2017-01-10T02:01:36.470Z,0
2017-01-10T02:02:36.066Z,0
2017-01-10T02:03:36.235Z,0
2017-01-10T02:04:35.444Z,0
2017-01-10T02:05:36.342Z,0
2017-01-10T02:06:36.362Z,0
2017-01-10T02:07:36.453Z,0
2017-01-10T02:08:35.877Z,0
2017-01-10T02:09:36.573Z,0
2017-01-10T02:10:35.845Z,0
2017-01-10T02:11:36.350Z,0
2017-01-10T02:12:36.289Z,0
2017-01-10T02:13:35.507Z,0
2017-01-10T02:14:36.515Z,0
2017-01-10T02:15:36.427Z,0
2017-01-10T02:16:36.153Z,0
2017-01-10T02:17:36.683Z,0
2017-01-10T02:18:36.989Z,0
2017-01-10T02:19:36.929Z,0
2017-01-10T02:20:36.000Z,0
2017-01-10T02:21:36.028Z,0
2017-01-10T02:22:35.967Z,0
2017-01-10T02:23:36.379Z,0
2017-01-10T02:24:36.280Z,0
2017-01-10T02:25:36.695Z,0
2017-01-10T02:26:36.601Z,0
2017-01-10T02:27:36.159Z,0
2017-01-10T02:28:36.579Z,0
2017-01-10T02:29:36.003Z,0
2017-01-10T02:30:36.880Z,0
2017-01-10T02:31:36.127Z,0
2017-01-10T02:32:36.660Z,0
2017-01-10T02:33:37.193Z,0
2017-01-10T02:34:35.810Z,0
2017-01-10T02:35:35.830Z,0
2017-01-10T02:36:36.244Z,0
2017-01-10T02:37:36.781Z,0
2017-01-10T02:38:36.794Z,0
2017-01-10T02:39:35.717Z,0
2017-01-10T02:40:36.818Z,0
2017-01-10T02:41:36.520Z,0
2017-01-10T02:42:36.600Z,0
2017-01-10T02:43:35.600Z,0
2017-01-10T02:44:36.688Z,0
2017-01-10T02:45:37.552Z,0
2017-01-10T02:46:36.764Z,0
2017-01-10T02:47:36.265Z,0
2017-01-10T02:48:36.734Z,0
2017-01-10T02:49:36.981Z,0
2017-01-10T02:50:36.218Z,0
2017-01-10T02:51:37.236Z,0
2017-01-10T02:52:37.423Z,0
2017-01-10T02:53:36.671Z,0
2017-01-10T02:54:36.821Z,0
2017-01-10T02:55:36.696Z,0
2017-01-10T02:56:36.621Z,0
2017-01-10T02:57:36.574Z,0
2017-01-10T02:58:37.781Z,0
2017-01-10T02:59:36.257Z,0
2017-01-10T03:00:36.303Z,0
2017-01-10T03:01:37.731Z,0
2017-01-10T03:02:35.938Z,0
2017-01-10T03:03:36.939Z,0
2017-01-10T03:04:36.489Z,0
2017-01-10T03:05:36.799Z,0
2017-01-10T03:06:37.695Z,0
2017-01-10T03:07:37.370Z,0
2017-01-10T03:08:37.270Z,0
2017-01-10T03:09:37.053Z,0
2017-01-10T03:10:37.051Z,0
2017-01-10T03:11:36.851Z,0
2017-01-10T03:12:37.058Z,0
2017-01-10T03:13:37.094Z,0
2017-01-10T03:14:37.274Z,0
2017-01-10T03:15:36.388Z,0
2017-01-10T03:16:37.520Z,0
2017-01-10T03:17:37.268Z,0
2017-01-10T03:18:37.351Z,0
2017-01-10T03:19:37.421Z,0
2017-01-10T03:20:36.531Z,0
2017-01-10T03:21:37.731Z,0
2017-01-10T03:22:36.469Z,0
2017-01-10T03:23:36.864Z,0
2017-01-10T03:24:36.801Z,0
2017-01-10T03:25:38.022Z,0
2017-01-10T03:26:37.293Z,0
2017-01-10T03:27:36.839Z,0
2017-01-10T03:28:37.459Z,0
2017-01-10T03:29:37.118Z,0
2017-01-10T03:30:38.044Z,0
2017-01-10T03:31:37.547Z,0
2017-01-10T03:32:37.574Z,0
2017-01-10T03:33:36.767Z,0
2017-01-10T03:34:37.482Z,0
2017-01-10T03:35:37.182Z,0
2017-01-10T03:36:36.918Z,0
2017-01-10T03:37:37.024Z,0
2017-01-10T03:38:38.029Z,0
2017-01-10T03:39:36.991Z,0
2017-01-10T03:40:38.706Z,0
2017-01-10T03:41:38.169Z,0
2017-01-10T03:42:38.421Z,0
2017-01-10T03:43:38.150Z,0
2017-01-10T03:44:36.458Z,0
2017-01-10T03:45:37.001Z,0
2017-01-10T03:46:36.918Z,0
2017-01-10T03:47:37.484Z,0
2017-01-10T03:48:37.055Z,0
2017-01-10T03:49:37.612Z,0
2017-01-10T03:50:37.775Z,0
2017-01-10T03:51:37.504Z,0
2017-01-10T03:52:37.894Z,0
2017-01-10T03:53:38.235Z,0
2017-01-10T03:54:36.970Z,0
2017-01-10T03:55:37.433Z,0
2017-01-10T03:56:36.894Z,0
2017-01-10T03:57:37.327Z,0
2017-01-10T03:58:37.475Z,0
2017-01-10T03:59:37.584Z,0
2017-01-10T04:00:37.290Z,0
2017-01-10T04:01:37.235Z,0
2017-01-10T04:02:37.601Z,0
2017-01-10T04:03:38.280Z,0
2017-01-10T04:04:38.621Z,0
2017-01-10T04:05:38.257Z,0
2017-01-10T04:06:38.243Z,0
2017-01-10T04:07:39.457Z,0
2017-01-10T04:08:38.643Z,0
2017-01-10T04:09:38.298Z,0
2017-01-10T04:10:38.190Z,0
2017-01-10T04:11:37.456Z,0
2017-01-10T04:12:37.772Z,0
2017-01-10T04:13:36.935Z,0
2017-01-10T04:14:38.141Z,0
2017-01-10T04:15:38.202Z,0
2017-01-10T04:16:38.635Z,0
2017-01-10T04:17:37.160Z,0
2017-01-10T04:18:37.822Z,0
2017-01-10T04:19:37.860Z,0
2017-01-10T04:20:38.585Z,0
2017-01-10T04:21:37.435Z,0
2017-01-10T04:22:38.394Z,0
2017-01-10T04:23:37.920Z,0
2017-01-10T04:24:37.662Z,0
2017-01-10T04:25:38.171Z,0
2017-01-10T04:26:38.371Z,0
2017-01-10T04:27:37.570Z,0
2017-01-10T04:28:37.396Z,0
2017-01-10T04:29:37.862Z,0
2017-01-10T04:30:37.571Z,0
2017-01-10T04:31:38.851Z,0
2017-01-10T04:32:37.002Z,0
2017-01-10T04:33:38.028Z,0
2017-01-10T04:34:38.372Z,0
2017-01-10T04:35:37.912Z,0
2017-01-10T04:36:38.515Z,0
2017-01-10T04:37:37.529Z,0
2017-01-10T04:38:38.748Z,0
2017-01-10T04:39:37.157Z,0
2017-01-10T04:40:38.128Z,0
2017-01-10T04:41:38.153Z,0
2017-01-10T04:42:37.734Z,0
2017-01-10T04:43:38.014Z,0
2017-01-10T04:44:39.056Z,0
2017-01-10T04:45:37.698Z,0
2017-01-10T04:46:38.638Z,0
2017-01-10T04:47:37.621Z,0
2017-01-10T04:48:38.036Z,0
2017-01-10T04:49:38.723Z,0
2017-01-10T04:50:37.755Z,0
2017-01-10T04:51:38.178Z,0
2017-01-10T04:52:37.784Z,0
2017-01-10T04:53:37.839Z,0
2017-01-10T04:54:37.777Z,0
2017-01-10T04:55:37.992Z,0
2017-01-10T04:56:37.751Z,0
2017-01-10T04:57:37.804Z,0
2017-01-10T04:58:38.539Z,0
2017-01-10T04:59:39.058Z,0
2017-01-10T05:00:39.646Z,0
2017-01-10T05:01:39.065Z,0
2017-01-10T05:02:37.534Z,0
2017-01-10T05:03:37.834Z,0
2017-01-10T05:04:39.967Z,0
2017-01-10T05:05:39.511Z,0
2017-01-10T05:06:39.003Z,0
2017-01-10T05:07:39.113Z,0
2017-01-10T05:08:38.730Z,0
2017-01-10T05:09:37.896Z,0
2017-01-10T05:10:38.070Z,0
2017-01-10T05:11:38.143Z,0
2017-01-10T05:12:38.017Z,0
2017-01-10T05:13:38.901Z,0
2017-01-10T05:14:39.009Z,0
2017-01-10T05:15:40.073Z,0
2017-01-10T05:16:39.670Z,0
2017-01-10T05:17:38.910Z,0
2017-01-10T05:18:38.147Z,0
2017-01-10T05:19:38.938Z,0
2017-01-10T05:20:38.644Z,0
2017-01-10T05:21:39.075Z,0
2017-01-10T05:22:39.373Z,0
2017-01-10T05:23:40.126Z,0
2017-01-10T05:24:38.783Z,0
2017-01-10T05:25:39.357Z,0
2017-01-10T05:26:39.612Z,0
2017-01-10T05:27:39.266Z,0
2017-01-10T05:28:38.554Z,0
2017-01-10T05:29:40.020Z,0
2017-01-10T05:30:39.342Z,0
2017-01-10T05:31:39.648Z,0
2017-01-10T05:32:40.031Z,0
2017-01-10T05:33:39.697Z,0
2017-01-10T05:34:39.544Z,0
2017-01-10T05:35:39.592Z,0
2017-01-10T05:36:39.061Z,0
2017-01-10T05:37:38.510Z,0
2017-01-10T05:38:38.441Z,0
2017-01-10T05:39:39.820Z,0
2017-01-10T05:40:39.510Z,0
2017-01-10T05:41:38.671Z,0
2017-01-10T05:42:38.825Z,0
2017-01-10T05:43:38.252Z,0
2017-01-10T05:44:39.840Z,0
2017-01-10T05:45:38.763Z,0
2017-01-10T05:46:38.213Z,0
2017-01-10T05:47:38.407Z,0
2017-01-10T05:48:39.669Z,0
2017-01-10T05:49:39.988Z,0
2017-01-10T05:50:39.191Z,0
2017-01-10T05:51:38.807Z,0
2017-01-10T05:52:39.150Z,0
2017-01-10T05:53:39.466Z,0
2017-01-10T05:54:39.297Z,0
2017-01-10T05:55:38.925Z,0
2017-01-10T05:56:40.355Z,0
2017-01-10T05:57:40.150Z,0
2017-01-10T05:58:38.981Z,0
2017-01-10T05:59:40.515Z,0
2017-01-10T06:00:39.864Z,0
2017-01-10T06:01:39.151Z,0
2017-01-10T06:02:39.282Z,0
2017-01-10T06:03:40.286Z,0
2017-01-10T06:04:40.096Z,0
2017-01-10T06:05:39.925Z,0
2017-01-10T06:06:40.248Z,0
2017-01-10T06:07:39.514Z,0
2017-01-10T06:08:39.397Z,0
2017-01-10T06:09:39.637Z,0
2017-01-10T06:10:39.542Z,0
2017-01-10T06:11:39.560Z,0
2017-01-10T06:12:39.323Z,0
2017-01-10T06:13:38.536Z,0
2017-01-10T06:14:39.823Z,0
2017-01-10T06:15:39.088Z,0
2017-01-10T06:16:40.361Z,0
2017-01-10T06:17:39.028Z,0
2017-01-10T06:18:40.008Z,0
2017-01-10T06:19:38.874Z,0
2017-01-10T06:20:39.301Z,0
2017-01-10T06:21:39.332Z,0
2017-01-10T06:22:42.869Z,0
2017-01-10T06:23:41.400Z,0
2017-01-10T06:24:40.382Z,0
2017-01-10T06:25:39.574Z,0
2017-01-10T06:26:39.991Z,0
2017-01-10T06:27:39.001Z,0
2017-01-10T06:28:39.072Z,0
2017-01-10T06:29:38.334Z,0
2017-01-10T06:30:39.557Z,0
2017-01-10T06:31:38.947Z,0
2017-01-10T06:32:38.621Z,0
2017-01-10T06:33:39.912Z,0
2017-01-10T06:34:40.236Z,0
2017-01-10T06:35:41.268Z,0
2017-01-10T06:36:39.158Z,0
2017-01-10T06:37:39.354Z,0
2017-01-10T06:38:39.316Z,0
2017-01-10T06:39:39.468Z,0
2017-01-10T06:40:39.846Z,0
2017-01-10T06:41:39.329Z,0
2017-01-10T06:42:39.286Z,0
2017-01-10T06:43:40.270Z,0
2017-01-10T06:44:39.844Z,0
2017-01-10T06:45:39.812Z,0
2017-01-10T06:46:39.777Z,0
2017-01-10T06:47:39.822Z,0
2017-01-10T06:48:39.804Z,0
2017-01-10T06:49:39.785Z,0
2017-01-10T06:50:38.989Z,0
2017-01-10T06:51:39.856Z,0
2017-01-10T06:52:39.565Z,0
2017-01-10T06:53:40.530Z,0
2017-01-10T06:54:40.132Z,0
2017-01-10T06:55:39.267Z,0
2017-01-10T06:56:40.768Z,0
2017-01-10T06:57:39.925Z,0
2017-01-10T06:58:38.909Z,0
2017-01-10T06:59:38.996Z,0
2017-01-10T07:00:39.746Z,0
2017-01-10T07:01:39.670Z,0
2017-01-10T07:02:40.156Z,0
2017-01-10T07:03:39.992Z,0
2017-01-10T07:04:39.605Z,0
2017-01-10T07:05:39.091Z,0
2017-01-10T07:06:39.285Z,0
2017-01-10T07:07:39.963Z,0
2017-01-10T07:08:40.548Z,0
2017-01-10T07:09:40.138Z,0
2017-01-10T07:10:40.449Z,0
2017-01-10T07:11:39.830Z,5
2017-01-10T07:12:40.290Z,5
2017-01-10T07:13:39.586Z,5
2017-01-10T07:14:41.367Z,5
2017-01-10T07:15:40.131Z,5
2017-01-10T07:16:40.274Z,5
2017-01-10T07:17:39.803Z,5
2017-01-10T07:18:40.844Z,5
2017-01-10T07:19:40.612Z,5
2017-01-10T07:20:40.283Z,10
2017-01-10T07:21:40.997Z,10
2017-01-10T07:22:40.119Z,10
2017-01-10T07:23:40.307Z,10
2017-01-10T07:24:40.176Z,10
2017-01-10T07:25:41.188Z,10
2017-01-10T07:26:40.208Z,10
2017-01-10T07:27:40.817Z,15
2017-01-10T07:28:40.440Z,15
2017-01-10T07:29:40.528Z,15
2017-01-10T07:30:40.207Z,15
2017-01-10T07:31:40.754Z,15
2017-01-10T07:32:40.682Z,15
2017-01-10T07:33:40.679Z,20
2017-01-10T07:34:40.681Z,20
2017-01-10T07:35:40.615Z,20
2017-01-10T07:36:40.165Z,20
2017-01-10T07:37:40.244Z,20
2017-01-10T07:38:40.646Z,20
2017-01-10T07:39:40.448Z,25
2017-01-10T07:40:40.376Z,25
2017-01-10T07:41:39.793Z,25
2017-01-10T07:42:40.199Z,30
2017-01-10T07:43:40.195Z,35
2017-01-10T07:44:40.331Z,35
2017-01-10T07:45:40.652Z,40
2017-01-10T07:46:40.358Z,40
2017-01-10T07:47:41.552Z,40
2017-01-10T07:48:39.655Z,40
2017-01-10T07:49:40.137Z,45
2017-01-10T07:50:39.718Z,45
2017-01-10T07:51:40.266Z,45
2017-01-10T07:52:41.016Z,45
2017-01-10T07:53:41.885Z,45
2017-01-10T07:54:40.922Z,40
2017-01-10T07:55:40.012Z,45
2017-01-10T07:56:39.897Z,45
2017-01-10T07:57:40.184Z,40
2017-01-10T07:58:40.546Z,40
2017-01-10T07:59:40.004Z,45
2017-01-10T08:00:40.162Z,40
2017-01-10T08:01:40.405Z,40
2017-01-10T08:02:40.584Z,45
2017-01-10T08:03:40.575Z,45
2017-01-10T08:04:40.722Z,50
2017-01-10T08:05:40.935Z,55
2017-01-10T08:06:40.960Z,60
2017-01-10T08:07:40.931Z,60
2017-01-10T08:08:41.061Z,65
2017-01-10T08:09:40.550Z,70
2017-01-10T08:10:40.530Z,75
2017-01-10T08:11:41.325Z,80
2017-01-10T08:12:40.613Z,80
2017-01-10T08:13:40.968Z,80
2017-01-10T08:14:41.840Z,80
2017-01-10T08:15:40.238Z,80
2017-01-10T08:16:41.106Z,85
2017-01-10T08:17:40.244Z,90
2017-01-10T08:18:40.980Z,90
2017-01-10T08:19:40.720Z,95
2017-01-10T08:20:41.630Z,100
2017-01-10T08:21:40.548Z,95
2017-01-10T08:22:40.736Z,95
2017-01-10T08:23:41.215Z,100
2017-01-10T08:24:40.644Z,110
2017-01-10T08:25:40.147Z,115
2017-01-10T08:26:40.878Z,120
2017-01-10T08:27:40.863Z,125
2017-01-10T08:28:40.444Z,125
2017-01-10T08:29:40.721Z,120
2017-01-10T08:30:40.035Z,115
2017-01-10T08:31:41.220Z,105
2017-01-10T08:32:41.105Z,105
2017-01-10T08:33:40.816Z,110
2017-01-10T08:34:41.146Z,110
2017-01-10T08:35:41.006Z,105
2017-01-10T08:36:41.912Z,105
2017-01-10T08:37:41.618Z,110
2017-01-10T08:38:41.347Z,110
2017-01-10T08:39:40.099Z,110
2017-01-10T08:40:41.579Z,105
2017-01-10T08:41:41.371Z,105
2017-01-10T08:42:40.411Z,110
2017-01-10T08:43:40.637Z,110
2017-01-10T08:44:41.692Z,115
2017-01-10T08:45:41.217Z,120
2017-01-10T08:46:40.629Z,115
2017-01-10T08:47:41.938Z,120
2017-01-10T08:48:41.174Z,125
2017-01-10T08:49:42.996Z,130
2017-01-10T08:50:41.589Z,140
2017-01-10T08:51:40.941Z,145
2017-01-10T08:52:41.189Z,155
2017-01-10T08:53:41.980Z,165
2017-01-10T08:54:41.046Z,170
2017-01-10T08:55:40.602Z,170
2017-01-10T08:56:40.625Z,180
2017-01-10T08:57:41.979Z,185
2017-01-10T08:58:41.627Z,190
2017-01-10T08:59:41.748Z,185
2017-01-10T09:00:40.534Z,180
2017-01-10T09:01:41.907Z,175
2017-01-10T09:02:40.517Z,170
2017-01-10T09:03:41.523Z,170
2017-01-10T09:04:41.437Z,165
2017-01-10T09:05:40.869Z,165
2017-01-10T09:06:41.844Z,170
2017-01-10T09:07:41.440Z,165
2017-01-10T09:08:41.781Z,160
2017-01-10T09:09:41.783Z,155
2017-01-10T09:10:41.772Z,150
2017-01-10T09:11:41.872Z,145
2017-01-10T09:12:41.638Z,140
2017-01-10T09:13:40.704Z,130
2017-01-10T09:14:41.789Z,115
2017-01-10T09:15:41.901Z,110
2017-01-10T09:16:41.219Z,100
2017-01-10T09:17:41.883Z,95
2017-01-10T09:18:42.218Z,100
2017-01-10T09:19:41.491Z,105
2017-01-10T09:20:42.357Z,105
2017-01-10T09:21:41.563Z,100
2017-01-10T09:22:41.073Z,100
2017-01-10T09:23:41.941Z,100
2017-01-10T09:24:41.840Z,100
2017-01-10T09:25:41.892Z,100
2017-01-10T09:26:42.674Z,95
2017-01-10T09:27:41.667Z,100
2017-01-10T09:28:42.041Z,95
2017-01-10T09:29:41.673Z,95
2017-01-10T09:30:42.039Z,95
2017-01-10T09:31:42.245Z,105
2017-01-10T09:32:41.467Z,110
2017-01-10T09:33:41.417Z,115
2017-01-10T09:34:41.014Z,115
2017-01-10T09:35:42.628Z,125
2017-01-10T09:36:42.738Z,115
2017-01-10T09:37:41.734Z,115
2017-01-10T09:38:41.931Z,125
2017-01-10T09:39:41.949Z,125
2017-01-10T09:40:42.572Z,120
2017-01-10T09:41:44.102Z,125
2017-01-10T09:42:41.640Z,135
2017-01-10T09:43:42.080Z,135
2017-01-10T09:44:42.399Z,135
2017-01-10T09:45:41.896Z,135
2017-01-10T09:46:42.870Z,135
2017-01-10T09:47:41.919Z,135
2017-01-10T09:48:42.040Z,135
2017-01-10T09:49:42.299Z,135
2017-01-10T09:50:41.994Z,135
2017-01-10T09:51:43.324Z,125
2017-01-10T09:52:41.708Z,115
2017-01-10T09:53:42.520Z,115
2017-01-10T09:54:42.173Z,115
2017-01-10T09:55:42.444Z,110
2017-01-10T09:56:42.094Z,95
2017-01-10T09:57:41.738Z,95
2017-01-10T09:58:43.193Z,100
2017-01-10T09:59:44.124Z,95
2017-01-10T10:00:42.561Z,95
2017-01-10T10:01:45.601Z,95
2017-01-10T10:02:43.328Z,90
2017-01-10T10:03:41.270Z,90
2017-01-10T10:04:42.022Z,90
2017-01-10T10:05:43.401Z,85
2017-01-10T10:06:42.275Z,80
2017-01-10T10:07:42.823Z,80
2017-01-10T10:08:41.654Z,75
2017-01-10T10:09:42.560Z,80
2017-01-10T10:10:43.055Z,85
2017-01-10T10:11:42.852Z,85
2017-01-10T10:12:41.781Z,85
2017-01-10T10:13:43.193Z,90
2017-01-10T10:14:43.951Z,95
2017-01-10T10:15:42.950Z,95
2017-01-10T10:16:43.279Z,95
2017-01-10T10:17:42.966Z,95
2017-01-10T10:18:42.746Z,95
2017-01-10T10:19:43.401Z,95
2017-01-10T10:20:42.415Z,95
2017-01-10T10:21:43.715Z,90
2017-01-10T10:22:42.760Z,95
2017-01-10T10:23:43.119Z,105
2017-01-10T10:24:42.641Z,105
2017-01-10T10:25:42.175Z,110
2017-01-10T10:26:43.206Z,110
2017-01-10T10:27:43.380Z,115
2017-01-10T10:28:42.449Z,120
2017-01-10T10:29:43.020Z,120
2017-01-10T10:30:41.556Z,130
2017-01-10T10:31:42.154Z,125
2017-01-10T10:32:43.728Z,120
2017-01-10T10:33:42.663Z,120
2017-01-10T10:34:42.692Z,125
2017-01-10T10:35:42.294Z,125
2017-01-10T10:36:42.949Z,125
2017-01-10T10:37:42.521Z,125
2017-01-10T10:38:42.249Z,125
2017-01-10T10:39:42.459Z,130
2017-01-10T10:40:41.841Z,130
2017-01-10T10:41:41.901Z,135
2017-01-10T10:42:42.782Z,150
2017-01-10T10:43:43.103Z,160
2017-01-10T10:44:42.495Z,155
2017-01-10T10:45:41.963Z,145
2017-01-10T10:46:42.388Z,135
2017-01-10T10:47:42.850Z,130
2017-01-10T10:48:42.748Z,140
2017-01-10T10:49:42.954Z,155
2017-01-10T10:50:44.272Z,165
2017-01-10T10:51:42.328Z,165
2017-01-10T10:52:43.096Z,165
2017-01-10T10:53:42.949Z,160
2017-01-10T10:54:42.670Z,160
2017-01-10T10:55:42.937Z,160
2017-01-10T10:56:42.632Z,150
2017-01-10T10:57:42.233Z,140
2017-01-10T10:58:43.284Z,140
2017-01-10T10:59:42.325Z,135
2017-01-10T11:00:43.767Z,130
2017-01-10T11:01:42.894Z,135
2017-01-10T11:02:42.359Z,140
2017-01-10T11:03:43.122Z,145
2017-01-10T11:04:43.847Z,150
2017-01-10T11:05:43.248Z,160
2017-01-10T11:06:42.835Z,170
2017-01-10T11:07:44.290Z,170
2017-01-10T11:08:42.493Z,170
2017-01-10T11:09:42.601Z,175
2017-01-10T11:10:42.571Z,190
2017-01-10T11:11:43.339Z,200
2017-01-10T11:12:43.248Z,195
2017-01-10T11:13:42.762Z,210
2017-01-10T11:14:43.165Z,235
2017-01-10T11:15:42.424Z,240
2017-01-10T11:16:42.263Z,240
2017-01-10T11:17:42.300Z,225
2017-01-10T11:18:44.225Z,210
2017-01-10T11:19:43.434Z,195
2017-01-10T11:20:42.869Z,185
2017-01-10T11:21:42.788Z,170
2017-01-10T11:22:42.342Z,160
2017-01-10T11:23:43.850Z,145
2017-01-10T11:24:43.383Z,140
2017-01-10T11:25:43.825Z,130
2017-01-10T11:26:43.766Z,135
2017-01-10T11:27:44.390Z,135
2017-01-10T11:28:42.809Z,135
2017-01-10T11:29:43.446Z,140
2017-01-10T11:30:44.223Z,145
2017-01-10T11:31:44.888Z,155
2017-01-10T11:32:42.529Z,170
2017-01-10T11:33:43.409Z,155
2017-01-10T11:34:43.039Z,150
2017-01-10T11:35:42.355Z,150
2017-01-10T11:36:43.904Z,155
2017-01-10T11:37:43.100Z,155
2017-01-10T11:38:42.478Z,155
2017-01-10T11:39:43.335Z,145
2017-01-10T11:40:42.888Z,155
2017-01-10T11:41:42.950Z,160
2017-01-10T11:42:44.376Z,155
2017-01-10T11:43:44.623Z,180
2017-01-10T11:44:44.086Z,200
2017-01-10T11:45:43.225Z,220
2017-01-10T11:46:42.816Z,265
2017-01-10T11:47:42.908Z,290
2017-01-10T11:48:42.766Z,305
2017-01-10T11:49:42.960Z,300
2017-01-10T11:50:43.556Z,345
2017-01-10T11:51:43.553Z,390
2017-01-10T11:52:44.171Z,430
2017-01-10T11:53:43.014Z,455
2017-01-10T11:54:43.404Z,470
2017-01-10T11:55:43.657Z,480
2017-01-10T11:56:42.773Z,480
2017-01-10T11:57:43.497Z,475
2017-01-10T11:58:43.556Z,445
2017-01-10T11:59:43.761Z,420
2017-01-10T12:00:43.550Z,395
2017-01-10T12:01:43.572Z,375
2017-01-10T12:02:43.385Z,380
2017-01-10T12:03:43.306Z,370
2017-01-10T12:04:43.925Z,355
2017-01-10T12:05:44.625Z,340
2017-01-10T12:06:43.468Z,335
2017-01-10T12:07:43.067Z,335
2017-01-10T12:08:43.585Z,320
2017-01-10T12:09:44.702Z,320
2017-01-10T12:10:44.834Z,305
2017-01-10T12:11:43.507Z,315
2017-01-10T12:12:43.260Z,335
2017-01-10T12:13:43.860Z,355
2017-01-10T12:14:43.495Z,365
2017-01-10T12:15:43.331Z,355
2017-01-10T12:16:43.607Z,340
2017-01-10T12:17:43.081Z,335
2017-01-10T12:19:12.773Z,310
2017-01-10T12:19:43.753Z,295
2017-01-10T12:20:45.344Z,285
2017-01-10T12:21:44.499Z,285
2017-01-10T12:22:43.796Z,275
2017-01-10T12:23:44.530Z,265
2017-01-10T12:24:42.879Z,255
2017-01-10T12:25:43.755Z,235
2017-01-10T12:26:43.691Z,230
2017-01-10T12:27:43.175Z,220
2017-01-10T12:28:44.185Z,210
2017-01-10T12:29:44.460Z,200
2017-01-10T12:30:43.315Z,190
2017-01-10T12:31:43.857Z,175
2017-01-10T12:32:42.905Z,170
2017-01-10T12:33:44.720Z,175
2017-01-10T12:34:43.655Z,175
2017-01-10T12:35:43.251Z,170
2017-01-10T12:36:44.492Z,150
2017-01-10T12:37:43.165Z,145
2017-01-10T12:38:43.620Z,150
2017-01-10T12:39:44.377Z,155
2017-01-10T12:40:43.609Z,155
2017-01-10T12:41:43.819Z,160
2017-01-10T12:42:43.543Z,175
2017-01-10T12:43:43.490Z,175
2017-01-10T12:44:45.291Z,175
2017-01-10T12:45:44.184Z,185
2017-01-10T12:46:44.561Z,180
2017-01-10T12:47:43.933Z,190
2017-01-10T12:48:44.262Z,200
2017-01-10T12:49:44.324Z,215
2017-01-10T12:50:43.884Z,235
2017-01-10T12:51:44.329Z,255
2017-01-10T12:52:43.406Z,275
2017-01-10T12:53:44.413Z,295
2017-01-10T12:54:46.317Z,315
2017-01-10T12:55:44.712Z,325
2017-01-10T12:56:44.106Z,340
2017-01-10T12:57:43.710Z,350
2017-01-10T12:58:43.797Z,360
2017-01-10T12:59:44.542Z,355
2017-01-10T13:00:44.191Z,340
2017-01-10T13:01:44.346Z,320
2017-01-10T13:02:43.892Z,310
2017-01-10T13:03:45.280Z,305
2017-01-10T13:04:43.684Z,300
2017-01-10T13:05:44.569Z,300
2017-01-10T13:06:43.901Z,300
2017-01-10T13:07:43.791Z,295
2017-01-10T13:08:44.688Z,290
2017-01-10T13:09:44.312Z,280
2017-01-10T13:10:45.096Z,280
2017-01-10T13:11:45.831Z,275
2017-01-10T13:12:44.323Z,275
2017-01-10T13:13:44.861Z,260
2017-01-10T13:14:44.285Z,245
2017-01-10T13:15:44.005Z,240
2017-01-10T13:16:44.009Z,240
2017-01-10T13:17:44.282Z,245
2017-01-10T13:18:44.890Z,250
2017-01-10T13:19:45.460Z,255
2017-01-10T13:20:44.184Z,255
2017-01-10T13:21:43.954Z,245
2017-01-10T13:22:45.491Z,235
2017-01-10T13:23:43.673Z,225
2017-01-10T13:24:44.499Z,215
2017-01-10T13:25:44.466Z,215
2017-01-10T13:26:45.129Z,210
2017-01-10T13:27:44.606Z,210
2017-01-10T13:28:43.883Z,205
2017-01-10T13:29:45.666Z,200
2017-01-10T13:30:44.681Z,195
2017-01-10T13:31:44.167Z,190
2017-01-10T13:32:45.532Z,185
2017-01-10T13:33:44.503Z,175
2017-01-10T13:34:44.073Z,175
2017-01-10T13:35:45.145Z,170
2017-01-10T13:36:44.655Z,175
2017-01-10T13:37:44.571Z,180
2017-01-10T13:38:44.899Z,190
2017-01-10T13:39:44.443Z,205
2017-01-10T13:40:45.111Z,210
2017-01-10T13:41:44.482Z,215
2017-01-10T13:42:44.835Z,210
2017-01-10T13:43:44.929Z,210
2017-01-10T13:44:44.969Z,205
2017-01-10T13:45:44.008Z,200
2017-01-10T13:46:45.406Z,195
2017-01-10T13:47:44.211Z,190
2017-01-10T13:48:44.263Z,185
2017-01-10T13:49:44.574Z,180
2017-01-10T13:50:44.649Z,175
2017-01-10T13:51:44.433Z,170
2017-01-10T13:52:45.650Z,170
2017-01-10T13:53:44.155Z,170
2017-01-10T13:54:45.307Z,170
2017-01-10T13:55:44.618Z,165
2017-01-10T13:56:44.150Z,160
2017-01-10T13:57:44.306Z,155
2017-01-10T13:58:45.219Z,155
2017-01-10T13:59:44.607Z,155
2017-01-10T14:00:45.240Z,150
2017-01-10T14:01:45.275Z,145
2017-01-10T14:02:45.700Z,140
2017-01-10T14:03:44.846Z,135
2017-01-10T14:04:45.295Z,130
2017-01-10T14:05:44.639Z,125
2017-01-10T14:06:44.509Z,130
2017-01-10T14:07:45.653Z,130
2017-01-10T14:08:44.657Z,130
2017-01-10T14:09:44.817Z,130
2017-01-10T14:10:45.572Z,125
2017-01-10T14:11:45.482Z,125
2017-01-10T14:12:45.171Z,120
2017-01-10T14:13:45.729Z,120
2017-01-10T14:14:45.697Z,120
2017-01-10T14:15:44.154Z,120
2017-01-10T14:16:44.946Z,115
2017-01-10T14:17:45.688Z,110
2017-01-10T14:18:45.853Z,105
2017-01-10T14:19:45.531Z,100